createdAt,value
2017-11-30T00:01:34.712Z,56.57
2017-11-30T00:04:02.375Z,62.50
2017-11-30T00:06:29.889Z,63.30
2017-11-30T00:08:57.446Z,58.20
2017-11-30T00:11:24.953Z,56.93
2017-11-30T00:13:52.546Z,54.30
2017-11-30T00:16:20.047Z,64.00
2017-11-30T00:18:47.582Z,61.03
2017-11-30T00:21:15.861Z,61.23
2017-11-30T00:23:43.661Z,52.57
2017-11-30T00:26:11.201Z,66.80
2017-11-30T00:28:39.481Z,59.73
2017-11-30T00:31:06.987Z,59.17
2017-11-30T00:33:34.597Z,63.90
2017-11-30T00:36:02.161Z,64.60
2017-11-30T00:38:29.858Z,62.40
2017-11-30T00:40:57.480Z,60.30
2017-11-30T00:43:31.506Z,60.90
2017-11-30T00:45:59.230Z,62.87
2017-11-30T00:48:27.704Z,60.37
2017-11-30T00:50:55.445Z,60.67
2017-11-30T00:53:22.957Z,57.50
2017-11-30T00:55:50.670Z,65.57
2017-11-30T00:58:18.893Z,68.20
2017-11-30T01:00:46.461Z,66.00
2017-11-30T01:03:13.979Z,54.90
2017-11-30T01:05:41.480Z,55.03
2017-11-30T01:08:09.148Z,62.30
2017-11-30T01:10:36.668Z,61.10
2017-11-30T01:13:04.482Z,57.83
2017-11-30T01:15:31.997Z,63.60
2017-11-30T01:18:00.278Z,55.53
2017-11-30T01:20:27.996Z,61.20
2017-11-30T01:22:55.505Z,62.80
2017-11-30T01:25:23.142Z,59.87
2017-11-30T01:27:50.661Z,60.67
2017-11-30T01:30:18.425Z,62.47
2017-11-30T01:32:46.163Z,63.47
2017-11-30T01:35:13.644Z,64.33
2017-11-30T01:37:41.170Z,54.80
2017-11-30T01:40:08.685Z,58.30
2017-11-30T01:42:36.295Z,72.20
2017-11-30T01:45:03.913Z,56.57
2017-11-30T01:47:31.443Z,58.90
2017-11-30T01:49:58.943Z,50.40
2017-11-30T01:52:26.458Z,60.03
2017-11-30T01:54:54.025Z,56.27
2017-11-30T01:57:21.680Z,60.63
2017-11-30T01:59:49.439Z,48.83
2017-11-30T02:02:16.966Z,55.90
2017-11-30T02:04:44.648Z,55.80
2017-11-30T02:07:12.148Z,59.33
2017-11-30T02:09:39.867Z,57.20
2017-11-30T02:12:07.428Z,51.13
2017-11-30T02:14:34.917Z,49.83
2017-11-30T02:17:02.561Z,57.40
2017-11-30T02:19:30.053Z,46.60
2017-11-30T02:21:57.772Z,51.00
2017-11-30T02:24:25.307Z,46.17
2017-11-30T02:26:52.992Z,45.47
2017-11-30T02:29:20.753Z,48.47
2017-11-30T02:31:48.291Z,36.30
2017-11-30T02:34:15.790Z,41.57
2017-11-30T02:36:43.306Z,42.67
2017-11-30T02:39:10.870Z,47.50
2017-11-30T02:41:38.673Z,54.00
2017-11-30T02:44:06.164Z,49.40
2017-11-30T02:46:33.711Z,47.57
2017-11-30T02:49:01.989Z,43.60
2017-11-30T02:51:29.536Z,42.00
2017-11-30T02:53:57.796Z,39.70
2017-11-30T02:56:25.329Z,45.63
2017-11-30T02:58:53.080Z,50.43
2017-11-30T03:01:20.608Z,55.13
2017-11-30T03:03:48.890Z,50.23
2017-11-30T03:06:17.515Z,47.60
2017-11-30T03:08:45.021Z,46.20
2017-11-30T03:11:12.654Z,51.90
2017-11-30T03:13:40.154Z,52.53
2017-11-30T03:16:07.945Z,55.13
2017-11-30T03:18:35.477Z,53.63
2017-11-30T03:21:02.969Z,47.60
2017-11-30T03:23:30.473Z,53.67
2017-11-30T03:25:58.740Z,60.23
2017-11-30T03:28:26.252Z,74.43
2017-11-30T03:30:54.418Z,55.17
2017-11-30T03:33:22.852Z,61.80
2017-11-30T03:35:50.358Z,52.37
2017-11-30T03:38:17.947Z,68.23
2017-11-30T03:40:45.430Z,58.50
2017-11-30T03:43:13.696Z,51.53
2017-11-30T03:45:41.424Z,62.10
2017-11-30T03:48:08.938Z,65.67
2017-11-30T03:50:36.614Z,61.70
2017-11-30T03:53:04.122Z,53.93
2017-11-30T03:55:31.622Z,66.13
2017-11-30T03:57:59.154Z,59.80
2017-11-30T04:00:26.687Z,54.60
2017-11-30T04:02:54.238Z,52.37
2017-11-30T04:05:21.997Z,60.50
2017-11-30T04:07:49.783Z,55.80
2017-11-30T04:10:17.543Z,66.13
2017-11-30T04:12:45.063Z,56.67
2017-11-30T04:15:12.570Z,62.60
2017-11-30T04:17:40.212Z,57.67
2017-11-30T04:20:07.717Z,52.43
2017-11-30T04:22:35.413Z,57.07
2017-11-30T04:25:02.957Z,61.23
2017-11-30T04:27:30.468Z,49.17
2017-11-30T04:29:57.973Z,61.40
2017-11-30T04:32:25.554Z,63.90
2017-11-30T04:34:53.226Z,55.10
2017-11-30T04:37:20.792Z,62.53
2017-11-30T04:39:48.295Z,55.40
2017-11-30T04:42:15.953Z,53.00
2017-11-30T04:44:43.487Z,50.30
2017-11-30T04:47:10.982Z,55.83
2017-11-30T04:49:38.652Z,55.60
2017-11-30T04:52:06.157Z,59.73
2017-11-30T04:54:33.881Z,55.07
2017-11-30T04:57:02.012Z,51.87
2017-11-30T04:59:29.550Z,52.13
2017-11-30T05:01:57.160Z,40.80
2017-11-30T05:04:24.944Z,51.83
2017-11-30T05:06:52.456Z,44.30
2017-11-30T05:09:20.045Z,45.60
2017-11-30T05:11:47.644Z,43.53
2017-11-30T05:14:15.233Z,48.90
2017-11-30T05:16:43.510Z,42.27
2017-11-30T05:19:11.026Z,47.67
2017-11-30T05:21:38.554Z,49.93
2017-11-30T05:24:06.057Z,52.97
2017-11-30T05:26:33.593Z,56.80
2017-11-30T05:29:01.422Z,59.73
2017-11-30T05:31:28.960Z,56.07
2017-11-30T05:33:57.221Z,55.50
2017-11-30T05:36:24.849Z,67.33
2017-11-30T05:38:52.353Z,64.27
2017-11-30T05:41:19.873Z,59.97
2017-11-30T05:43:47.413Z,56.00
2017-11-30T05:46:14.927Z,66.13
2017-11-30T05:48:43.465Z,65.97
2017-11-30T05:51:10.969Z,76.67
2017-11-30T05:53:38.508Z,71.67
2017-11-30T05:56:06.140Z,72.70
2017-11-30T05:58:33.658Z,73.43
2017-11-30T06:01:01.367Z,80.40
2017-11-30T06:03:29.089Z,74.87
2017-11-30T06:05:56.700Z,76.50
2017-11-30T06:08:24.205Z,72.87
2017-11-30T06:10:51.725Z,71.30
2017-11-30T06:13:19.258Z,60.27
2017-11-30T06:15:46.757Z,72.13
2017-11-30T06:18:14.413Z,69.87
2017-11-30T06:20:41.942Z,83.50
2017-11-30T06:23:09.705Z,67.27
2017-11-30T06:25:37.258Z,61.63
2017-11-30T06:28:04.887Z,64.30
2017-11-30T06:30:32.386Z,72.53
2017-11-30T06:32:59.907Z,79.70
2017-11-30T06:35:27.411Z,76.37
2017-11-30T06:37:54.945Z,72.47
2017-11-30T06:40:22.488Z,77.17
2017-11-30T06:42:50.006Z,75.87
2017-11-30T06:45:17.726Z,82.40
2017-11-30T06:47:45.257Z,73.77
2017-11-30T06:50:12.919Z,73.30
2017-11-30T06:52:40.418Z,76.27
2017-11-30T06:55:07.924Z,74.33
2017-11-30T06:57:35.419Z,67.00
2017-11-30T07:00:03.012Z,79.50
2017-11-30T07:02:31.398Z,77.17
2017-11-30T07:04:59.007Z,79.07
2017-11-30T07:07:26.713Z,76.87
2017-11-30T07:09:54.349Z,57.67
2017-11-30T07:12:21.862Z,75.30
2017-11-30T07:14:49.376Z,75.00
2017-11-30T07:17:17.098Z,73.80
2017-11-30T07:19:44.617Z,70.27
2017-11-30T07:22:12.174Z,68.83
2017-11-30T07:24:40.446Z,64.13
2017-11-30T07:27:08.298Z,69.87
2017-11-30T07:29:35.791Z,77.17
2017-11-30T07:32:03.307Z,89.80
2017-11-30T07:34:30.857Z,91.60
2017-11-30T07:36:59.564Z,80.40
2017-11-30T07:39:27.313Z,86.13
2017-11-30T07:41:55.057Z,76.30
2017-11-30T07:44:22.557Z,80.57
2017-11-30T07:46:50.256Z,82.23
2017-11-30T07:49:17.777Z,76.90
2017-11-30T07:51:45.497Z,82.20
2017-11-30T07:54:13.245Z,71.73
2017-11-30T07:56:41.029Z,71.17
2017-11-30T07:59:08.541Z,72.83
2017-11-30T08:01:36.053Z,80.90
2017-11-30T08:04:03.580Z,72.00
2017-11-30T08:06:31.074Z,76.33
2017-11-30T08:08:58.615Z,64.43
2017-11-30T08:11:26.349Z,68.70
2017-11-30T08:13:54.140Z,57.87
2017-11-30T08:16:21.637Z,58.77
2017-11-30T08:18:49.370Z,69.97
2017-11-30T08:21:17.013Z,57.97
2017-11-30T08:23:44.553Z,59.67
2017-11-30T08:26:12.044Z,61.90
2017-11-30T08:28:39.552Z,56.87
2017-11-30T08:31:07.054Z,69.90
2017-11-30T08:33:34.568Z,57.83
2017-11-30T08:36:02.477Z,48.17
2017-11-30T08:38:29.981Z,60.07
2017-11-30T08:40:57.697Z,60.43
2017-11-30T08:43:25.460Z,51.87
2017-11-30T08:45:53.228Z,47.17
2017-11-30T08:48:20.742Z,48.93
2017-11-30T08:50:49.103Z,48.43
2017-11-30T08:53:16.610Z,54.90
2017-11-30T08:55:44.104Z,49.87
2017-11-30T08:58:11.610Z,53.63
2017-11-30T09:00:39.118Z,53.70
2017-11-30T09:03:06.625Z,72.33
2017-11-30T09:05:34.308Z,53.27
2017-11-30T09:08:01.933Z,71.10
2017-11-30T09:10:29.432Z,71.40
2017-11-30T09:12:56.935Z,70.20
2017-11-30T09:15:25.199Z,71.40
2017-11-30T09:17:52.929Z,72.20
2017-11-30T09:20:20.709Z,79.10
2017-11-30T09:22:48.451Z,72.17
2017-11-30T09:25:15.962Z,79.70
2017-11-30T09:27:43.509Z,62.67
2017-11-30T09:30:11.026Z,77.40
2017-11-30T09:32:38.534Z,74.60
2017-11-30T09:35:06.093Z,81.57
2017-11-30T09:37:34.815Z,65.80
2017-11-30T09:40:02.459Z,56.23
2017-11-30T09:42:29.965Z,47.73
2017-11-30T09:44:57.452Z,64.23
2017-11-30T09:47:25.171Z,56.87
2017-11-30T09:49:52.679Z,56.37
2017-11-30T09:52:20.277Z,48.97
2017-11-30T09:54:47.800Z,52.53
2017-11-30T09:57:15.944Z,50.47
2017-11-30T09:59:43.458Z,48.30
2017-11-30T10:02:10.961Z,48.40
2017-11-30T10:04:38.471Z,54.70
2017-11-30T10:07:05.991Z,47.13
2017-11-30T10:09:33.522Z,50.87
2017-11-30T10:12:01.046Z,56.77
2017-11-30T10:14:28.608Z,55.90
2017-11-30T10:16:56.177Z,65.20
2017-11-30T10:19:23.741Z,50.27
2017-11-30T10:21:51.247Z,53.00
2017-11-30T10:24:19.596Z,43.90
2017-11-30T10:26:47.290Z,46.10
2017-11-30T10:29:14.959Z,53.23
2017-11-30T10:31:42.469Z,62.37
2017-11-30T10:34:10.018Z,53.97
2017-11-30T10:36:37.514Z,45.63
2017-11-30T10:39:05.801Z,43.43
2017-11-30T10:41:33.298Z,47.83
2017-11-30T10:44:00.813Z,52.93
2017-11-30T10:46:28.337Z,42.73
2017-11-30T10:48:55.875Z,51.10
2017-11-30T10:51:23.389Z,58.00
2017-11-30T10:53:51.135Z,53.33
2017-11-30T10:56:18.646Z,50.03
2017-11-30T10:58:46.154Z,60.10
2017-11-30T11:01:14.454Z,41.43
2017-11-30T11:03:41.963Z,43.77
2017-11-30T11:06:09.510Z,53.70
2017-11-30T11:08:37.016Z,46.50
2017-11-30T11:11:04.873Z,47.80
2017-11-30T11:13:33.218Z,49.53
2017-11-30T11:16:00.739Z,48.93
2017-11-30T11:18:28.432Z,62.10
2017-11-30T11:20:55.977Z,54.43
2017-11-30T11:23:23.520Z,56.00
2017-11-30T11:25:51.129Z,63.43
2017-11-30T11:28:18.668Z,58.50
2017-11-30T11:30:46.361Z,56.87
2017-11-30T11:33:13.876Z,50.77
2017-11-30T11:35:41.415Z,59.80
2017-11-30T11:38:09.060Z,62.37
2017-11-30T11:40:36.579Z,60.20
2017-11-30T11:43:04.179Z,56.33
2017-11-30T11:45:31.669Z,59.67
2017-11-30T11:47:59.225Z,57.17
2017-11-30T11:50:26.749Z,71.03
2017-11-30T11:52:54.248Z,57.30
2017-11-30T11:55:22.334Z,54.03
2017-11-30T11:57:49.833Z,53.80
2017-11-30T12:00:17.366Z,59.77
2017-11-30T12:02:44.857Z,66.73
2017-11-30T12:05:12.361Z,54.80
2017-11-30T12:07:39.887Z,52.87
2017-11-30T12:10:07.388Z,56.37
2017-11-30T12:12:34.933Z,57.40
2017-11-30T12:15:02.480Z,55.10
2017-11-30T12:17:30.124Z,49.37
2017-11-30T12:19:57.676Z,53.23
2017-11-30T12:22:25.222Z,58.70
2017-11-30T12:24:53.564Z,64.63
2017-11-30T12:27:21.178Z,59.47
2017-11-30T12:29:48.697Z,53.03
2017-11-30T12:32:16.216Z,52.47
2017-11-30T12:34:43.874Z,47.53
2017-11-30T12:37:11.416Z,49.17
2017-11-30T12:39:39.102Z,47.77
2017-11-30T12:42:06.678Z,53.47
2017-11-30T12:44:34.236Z,45.20
2017-11-30T12:47:01.806Z,54.20
2017-11-30T12:49:29.345Z,51.97
2017-11-30T12:51:56.925Z,49.87
2017-11-30T12:54:24.466Z,43.37
2017-11-30T12:56:51.966Z,40.20
2017-11-30T12:59:19.500Z,42.77
2017-11-30T13:01:47.949Z,43.20
2017-11-30T13:04:15.507Z,53.07
2017-11-30T13:06:43.046Z,44.97
2017-11-30T13:09:10.715Z,53.47
2017-11-30T13:11:38.243Z,52.83
2017-11-30T13:14:05.772Z,48.93
2017-11-30T13:16:34.764Z,49.17
2017-11-30T13:19:03.061Z,46.33
2017-11-30T13:21:30.610Z,50.90
2017-11-30T13:23:58.914Z,47.67
2017-11-30T13:26:26.576Z,48.17
2017-11-30T13:28:54.388Z,52.67
2017-11-30T13:31:21.883Z,46.27
2017-11-30T13:33:49.580Z,44.70
2017-11-30T13:36:17.404Z,48.97
2017-11-30T13:38:44.972Z,51.10
2017-11-30T13:41:12.479Z,43.37
2017-11-30T13:43:39.985Z,37.70
2017-11-30T13:46:07.520Z,42.53
2017-11-30T13:48:35.116Z,40.70
2017-11-30T13:51:02.722Z,38.50
2017-11-30T13:53:30.237Z,42.90
2017-11-30T13:55:57.742Z,45.27
2017-11-30T13:58:25.634Z,42.03
2017-11-30T14:00:53.138Z,41.23
2017-11-30T14:03:20.632Z,44.33
2017-11-30T14:05:48.216Z,40.50
2017-11-30T14:08:15.855Z,50.30
2017-11-30T14:10:43.399Z,48.73
2017-11-30T14:13:11.797Z,39.97
2017-11-30T14:15:40.079Z,45.23
2017-11-30T14:18:07.805Z,42.47
2017-11-30T14:20:35.315Z,44.80
2017-11-30T14:23:03.051Z,47.10
2017-11-30T14:25:30.551Z,47.33
2017-11-30T14:27:58.232Z,48.03
2017-11-30T14:30:25.774Z,39.37
2017-11-30T14:32:53.284Z,39.47
2017-11-30T14:35:21.826Z,39.33
2017-11-30T14:37:50.140Z,37.63
2017-11-30T14:40:18.604Z,48.40
2017-11-30T14:42:46.132Z,45.07
2017-11-30T14:45:13.813Z,45.90
2017-11-30T14:47:41.396Z,39.30
2017-11-30T14:50:09.031Z,43.17
2017-11-30T14:52:36.560Z,43.33
2017-11-30T14:55:04.384Z,38.30
2017-11-30T14:57:31.888Z,41.20
2017-11-30T14:59:59.427Z,39.23
2017-11-30T15:02:27.244Z,52.67
2017-11-30T15:04:54.752Z,47.83
2017-11-30T15:07:22.511Z,47.43
2017-11-30T15:09:49.980Z,48.00
2017-11-30T15:12:17.536Z,38.30
2017-11-30T15:14:45.039Z,38.30
2017-11-30T15:17:12.585Z,45.13
2017-11-30T15:19:40.077Z,41.87
2017-11-30T15:22:07.644Z,39.70
2017-11-30T15:24:35.936Z,35.07
2017-11-30T15:27:03.648Z,39.07
2017-11-30T15:29:31.159Z,33.60
2017-11-30T15:31:58.855Z,42.23
2017-11-30T15:34:26.358Z,38.97
2017-11-30T15:36:54.673Z,38.23
2017-11-30T15:39:22.179Z,32.43
2017-11-30T15:41:49.675Z,36.13
2017-11-30T15:44:17.215Z,33.73
2017-11-30T15:46:45.603Z,25.57
2017-11-30T15:49:13.109Z,30.20
2017-11-30T15:51:40.621Z,33.70
2017-11-30T15:54:08.427Z,27.47
2017-11-30T15:56:36.192Z,32.73
2017-11-30T15:59:03.943Z,29.37
2017-11-30T16:01:31.459Z,35.47
2017-11-30T16:03:58.982Z,32.10
2017-11-30T16:06:26.504Z,35.37
2017-11-30T16:08:54.057Z,37.27
2017-11-30T16:11:21.610Z,34.90
2017-11-30T16:13:49.163Z,35.20
2017-11-30T16:16:16.754Z,36.10
2017-11-30T16:18:44.286Z,31.40
2017-11-30T16:21:12.512Z,32.33
2017-11-30T16:23:40.231Z,40.87
2017-11-30T16:26:07.870Z,39.50
2017-11-30T16:28:35.584Z,39.27
2017-11-30T16:31:03.088Z,39.10
2017-11-30T16:33:30.826Z,44.00
2017-11-30T16:35:58.340Z,50.43
2017-11-30T16:38:25.836Z,45.87
2017-11-30T16:40:53.495Z,44.90
2017-11-30T16:43:21.035Z,49.80
2017-11-30T16:45:48.544Z,46.27
2017-11-30T16:48:16.064Z,48.50
2017-11-30T16:50:43.563Z,52.23
2017-11-30T16:53:11.576Z,46.37
2017-11-30T16:55:39.104Z,46.93
2017-11-30T16:58:06.623Z,46.50
2017-11-30T17:00:34.353Z,43.83
2017-11-30T17:03:02.167Z,51.77
2017-11-30T17:05:29.741Z,46.80
2017-11-30T17:07:57.264Z,56.03
2017-11-30T17:10:24.796Z,51.33
2017-11-30T17:12:54.019Z,44.40
2017-11-30T17:15:21.548Z,42.70
2017-11-30T17:17:49.099Z,47.63
2017-11-30T17:20:16.599Z,42.00
2017-11-30T17:22:44.229Z,52.03
2017-11-30T17:25:11.749Z,48.33
2017-11-30T17:27:39.269Z,55.60
2017-11-30T17:30:06.886Z,48.87
2017-11-30T17:32:34.425Z,48.47
2017-11-30T17:35:01.923Z,50.92
2017-11-30T17:37:29.432Z,51.63
2017-11-30T17:39:57.020Z,48.63
2017-11-30T17:42:24.544Z,50.63
2017-11-30T17:44:52.076Z,44.80
2017-11-30T17:47:19.584Z,47.40
2017-11-30T17:49:47.150Z,61.40
2017-11-30T17:52:14.662Z,48.30
2017-11-30T17:54:42.379Z,53.80
2017-11-30T17:57:09.868Z,45.43
2017-11-30T17:59:38.117Z,40.33
2017-11-30T18:02:05.707Z,42.90
2017-11-30T18:04:33.650Z,45.63
2017-11-30T18:07:01.168Z,49.57
2017-11-30T18:09:28.707Z,49.23
2017-11-30T18:11:56.272Z,45.50
2017-11-30T18:14:24.640Z,48.20
2017-11-30T18:16:52.952Z,45.93
2017-11-30T18:19:20.575Z,48.40
2017-11-30T18:21:48.820Z,56.90
2017-11-30T18:24:16.328Z,49.70
2017-11-30T18:26:44.051Z,47.20
2017-11-30T18:29:11.558Z,41.90
2017-11-30T18:31:39.119Z,50.50
2017-11-30T18:34:06.633Z,46.87
2017-11-30T18:36:34.379Z,48.27
2017-11-30T18:39:01.888Z,45.47
2017-11-30T18:41:29.397Z,43.97
2017-11-30T18:43:56.913Z,42.73
2017-11-30T18:46:24.425Z,40.63
2017-11-30T18:48:51.943Z,44.47
2017-11-30T18:51:19.444Z,29.30
2017-11-30T18:53:46.955Z,31.37
2017-11-30T18:56:14.460Z,24.83
2017-11-30T18:58:42.101Z,21.57
2017-11-30T19:01:09.638Z,27.67
2017-11-30T19:03:37.451Z,28.67
2017-11-30T19:06:05.731Z,39.27
2017-11-30T19:08:34.147Z,38.10
2017-11-30T19:11:01.816Z,37.70
2017-11-30T19:13:29.352Z,35.80
2017-11-30T19:15:56.967Z,36.70
2017-11-30T19:18:24.507Z,26.77
2017-11-30T19:20:52.018Z,30.03
2017-11-30T19:23:19.588Z,32.47
2017-11-30T19:25:47.107Z,24.87
2017-11-30T19:28:14.599Z,34.33
2017-11-30T19:30:42.168Z,33.37
2017-11-30T19:33:09.739Z,34.63
2017-11-30T19:35:37.276Z,31.03
2017-11-30T19:38:05.075Z,29.07
2017-11-30T19:40:32.580Z,27.00
2017-11-30T19:43:01.224Z,25.87
2017-11-30T19:45:28.750Z,23.47
2017-11-30T19:47:56.252Z,30.40
2017-11-30T19:50:23.872Z,40.47
2017-11-30T19:52:51.392Z,37.43
2017-11-30T19:55:18.911Z,45.60
2017-11-30T19:57:46.577Z,53.40
2017-11-30T20:00:14.084Z,59.10
2017-11-30T20:02:41.600Z,54.97
2017-11-30T20:05:09.226Z,63.27
2017-11-30T20:07:36.752Z,49.33
2017-11-30T20:10:04.280Z,53.63
2017-11-30T20:12:31.784Z,49.03
2017-11-30T20:14:59.291Z,53.67
2017-11-30T20:17:26.830Z,57.03
2017-11-30T20:19:54.352Z,54.00
2017-11-30T20:22:22.076Z,58.07
2017-11-30T20:24:49.589Z,53.37
2017-11-30T20:27:17.087Z,59.33
2017-11-30T20:29:44.853Z,52.50
2017-11-30T20:32:12.384Z,48.83
2017-11-30T20:34:39.955Z,48.40
2017-11-30T20:37:07.489Z,50.50
2017-11-30T20:39:34.987Z,63.53
2017-11-30T20:42:02.647Z,48.10
2017-11-30T20:44:30.155Z,52.60
2017-11-30T20:46:57.760Z,54.83
2017-11-30T20:49:25.274Z,46.43
2017-11-30T20:51:52.838Z,45.47
2017-11-30T20:54:20.851Z,49.00
2017-11-30T20:56:48.403Z,44.53
2017-11-30T20:59:15.924Z,44.50
2017-11-30T21:01:43.448Z,48.00
2017-11-30T21:04:11.012Z,47.40
2017-11-30T21:06:38.753Z,44.17
2017-11-30T21:09:07.760Z,48.70
2017-11-30T21:11:35.276Z,40.67
2017-11-30T21:14:02.780Z,51.13
2017-11-30T21:16:31.067Z,47.33
2017-11-30T21:18:59.353Z,47.87
2017-11-30T21:21:26.871Z,44.37
2017-11-30T21:23:54.356Z,47.80
2017-11-30T21:26:22.083Z,49.13
2017-11-30T21:28:49.592Z,42.10
2017-11-30T21:31:17.110Z,42.97
2017-11-30T21:33:44.619Z,42.80
2017-11-30T21:36:12.244Z,40.57
2017-11-30T21:38:39.752Z,48.10
2017-11-30T21:41:07.298Z,44.87
2017-11-30T21:43:34.862Z,44.40
2017-11-30T21:46:02.383Z,46.57
2017-11-30T21:48:29.940Z,39.27
2017-11-30T21:50:58.476Z,45.20
2017-11-30T21:53:26.017Z,44.30
2017-11-30T21:55:53.690Z,40.77
2017-11-30T21:58:21.236Z,43.10
2017-11-30T22:00:48.968Z,40.80
2017-11-30T22:03:16.675Z,41.43
2017-11-30T22:05:44.175Z,40.13
2017-11-30T22:08:12.344Z,42.63
2017-11-30T22:10:40.647Z,44.50
2017-11-30T22:13:08.328Z,38.30
2017-11-30T22:15:35.821Z,44.87
2017-11-30T22:18:03.452Z,41.67
2017-11-30T22:20:30.988Z,40.13
2017-11-30T22:22:58.524Z,36.37
2017-11-30T22:25:26.208Z,45.73
2017-11-30T22:27:54.026Z,37.20
2017-11-30T22:30:21.579Z,38.50
2017-11-30T22:32:50.786Z,40.83
2017-11-30T22:35:18.735Z,39.87
2017-11-30T22:37:46.882Z,44.77
2017-11-30T22:40:14.480Z,36.20
2017-11-30T22:42:42.374Z,52.23
2017-11-30T22:45:09.979Z,40.20
2017-11-30T22:47:37.484Z,39.77
2017-11-30T22:50:07.199Z,41.63
2017-11-30T22:52:35.216Z,47.60
2017-11-30T22:55:02.882Z,38.23
2017-11-30T22:57:31.575Z,41.03
2017-11-30T22:59:59.124Z,44.47
2017-11-30T23:02:26.704Z,44.00
2017-11-30T23:04:54.285Z,37.10
2017-11-30T23:07:21.767Z,42.07
2017-11-30T23:09:49.339Z,49.00
2017-11-30T23:12:17.133Z,43.33
2017-11-30T23:14:44.710Z,38.37
2017-11-30T23:17:12.208Z,44.20
2017-11-30T23:19:39.733Z,44.27
2017-11-30T23:22:07.232Z,47.73
2017-11-30T23:24:34.731Z,45.77
2017-11-30T23:27:02.481Z,42.50
2017-11-30T23:29:29.979Z,42.60
2017-11-30T23:31:57.739Z,46.20
2017-11-30T23:34:25.243Z,39.73
2017-11-30T23:36:52.752Z,37.80
2017-11-30T23:39:20.376Z,47.00
2017-11-30T23:41:48.149Z,39.73
2017-11-30T23:44:15.679Z,43.57
2017-11-30T23:46:43.344Z,48.13
2017-11-30T23:49:10.839Z,41.13
2017-11-30T23:51:38.395Z,45.70
2017-11-30T23:54:05.907Z,43.27
2017-11-30T23:56:34.426Z,40.00
2017-11-30T23:59:01.932Z,42.83
